Time;durP1;ratioP1;P1;durP2;ratioP2;P2;SDS_P1;SDS_P2;PMS_P1;PMS_P2;Temp;Humidity;BMP_temperature;BMP_pressure;BME280_temperature;BME280_humidity;BME280_pressure;Samples;Min_cycle;Max_cycle;Signal;HPM_P1;HPM_P2
2023/05/06 00:02:22;;;;;;;0.13;0.10;;;11.20;99.90;;;;;;5033307;28;20088;-85
2023/05/06 00:04:48;;;;;;;0.45;0.15;;;11.20;99.90;;;;;;5033290;28;20057;-85
2023/05/06 00:07:14;;;;;;;0.75;0.75;;;11.20;99.90;;;;;;5050355;28;20124;-85
2023/05/06 00:09:40;;;;;;;0.45;0.25;;;11.80;99.90;;;;;;5050367;28;20052;-85
2023/05/06 00:12:05;;;;;;;0.88;0.80;;;11.10;99.90;;;;;;5053152;28;20059;-85
2023/05/06 00:14:31;;;;;;;0.00;0.00;;;11.00;99.90;;;;;;5052700;28;20037;-85
2023/05/06 00:16:57;;;;;;;0.10;0.10;;;10.90;99.90;;;;;;5037202;28;20132;-85
2023/05/06 00:19:22;;;;;;;1.08;0.20;;;10.80;99.90;;;;;;5032927;28;20120;-85
2023/05/06 00:21:48;;;;;;;0.30;0.22;;;10.80;99.90;;;;;;5033109;28;20048;-85
2023/05/06 00:24:14;;;;;;;0.10;0.10;;;10.60;99.90;;;;;;5032407;28;20050;-85
2023/05/06 00:26:39;;;;;;;0.05;0.03;;;10.50;99.90;;;;;;5051098;28;20109;-85
2023/05/06 00:29:05;;;;;;;0.13;0.13;;;10.30;99.90;;;;;;5050241;28;20041;-85
2023/05/06 00:31:31;;;;;;;0.25;0.20;;;10.20;99.90;;;;;;5053010;28;20051;-85
2023/05/06 00:33:56;;;;;;;0.22;0.17;;;10.00;99.90;;;;;;5053079;28;20072;-86
2023/05/06 00:36:22;;;;;;;0.00;0.00;;;9.90;99.90;;;;;;5042882;28;20037;-86
2023/05/06 00:38:48;;;;;;;0.35;0.22;;;9.80;99.90;;;;;;5032370;28;20052;-86
2023/05/06 00:41:13;;;;;;;0.10;0.10;;;9.70;99.90;;;;;;5032623;28;20514;-86
2023/05/06 00:43:39;;;;;;;0.00;0.00;;;9.70;99.90;;;;;;5032755;28;20056;-86
2023/05/06 00:46:08;;;;;;;0.05;0.05;;;10.20;99.90;;;;;;5039454;28;20118;-86
2023/05/06 00:48:34;;;;;;;0.30;0.22;;;9.70;99.90;;;;;;5052239;28;20096;-86
2023/05/06 00:51:00;;;;;;;0.43;0.35;;;10.10;99.90;;;;;;5053035;28;20041;-86
2023/05/06 00:53:26;;;;;;;0.28;0.08;;;9.60;99.90;;;;;;5050586;28;20049;-86
2023/05/06 00:55:51;;;;;;;0.22;0.22;;;9.60;99.90;;;;;;5040405;28;20487;-86
2023/05/06 00:58:19;;;;;;;0.00;0.00;;;9.70;99.90;;;;;;5032789;28;20053;-86
2023/05/06 01:00:44;;;;;;;0.10;0.10;;;9.90;99.90;;;;;;5032388;28;20096;-86
2023/05/06 01:03:10;;;;;;;1.25;0.60;;;10.00;99.90;;;;;;5032604;28;20041;-86
2023/05/06 01:05:53;;;;;;;1.60;0.65;;;10.10;99.90;;;;;;5035723;28;20040;-86
2023/05/06 01:08:34;;;;;;;2.75;1.65;;;10.30;99.90;;;;;;5052142;28;20056;-86
2023/05/06 01:11:15;;;;;;;0.38;0.20;;;10.30;99.90;;;;;;5052693;28;20501;-86
2023/05/06 01:13:54;;;;;;;0.57;0.57;;;10.40;99.90;;;;;;5052532;28;20052;-86
2023/05/06 01:16:24;;;;;;;0.00;0.00;;;10.40;99.90;;;;;;5051834;28;20716;-86
2023/05/06 01:18:51;;;;;;;0.57;0.22;;;10.50;99.90;;;;;;5052108;28;20479;-86
2023/05/06 01:21:18;;;;;;;1.02;0.82;;;10.50;99.90;;;;;;5052390;28;20041;-85
2023/05/06 01:23:51;;;;;;;0.10;0.10;;;10.40;99.90;;;;;;5052436;28;20531;-86
2023/05/06 01:26:16;;;;;;;1.70;0.98;;;10.60;99.90;;;;;;5045471;28;20041;-86
2023/05/06 01:28:42;;;;;;;2.30;1.55;;;10.30;99.90;;;;;;5032190;28;20052;-86
2023/05/06 01:31:12;;;;;;;0.10;0.10;;;10.40;99.90;;;;;;5033213;28;20045;-85
2023/05/06 01:33:53;;;;;;;0.28;0.28;;;10.30;99.90;;;;;;5034778;28;20037;-86
2023/05/06 01:36:24;;;;;;;0.55;0.50;;;10.40;99.90;;;;;;5035511;28;20049;-86
2023/05/06 01:38:57;;;;;;;0.43;0.32;;;10.40;99.90;;;;;;5036465;28;20053;-86
2023/05/06 01:41:24;;;;;;;1.52;0.85;;;10.40;99.90;;;;;;5036101;28;20049;-86
2023/05/06 01:43:52;;;;;;;1.40;1.27;;;10.40;99.90;;;;;;5035770;28;20115;-86
2023/05/06 01:46:19;;;;;;;0.90;0.75;;;11.10;99.90;;;;;;5039503;28;20045;-86
2023/05/06 01:48:48;;;;;;;0.88;0.38;;;10.50;99.90;;;;;;5055300;28;20183;-86
2023/05/06 01:51:13;;;;;;;0.70;0.45;;;10.50;99.90;;;;;;5055690;28;20554;-86
2023/05/06 01:53:39;;;;;;;0.10;0.10;;;10.40;99.90;;;;;;5055616;28;20036;-86
2023/05/06 01:56:05;;;;;;;0.55;0.40;;;10.30;99.90;;;;;;5052969;28;20107;-86
2023/05/06 01:58:30;;;;;;;0.43;0.43;;;10.20;99.90;;;;;;5036531;28;20049;-86
2023/05/06 02:00:56;;;;;;;3.53;0.68;;;11.10;99.90;;;;;;5034906;28;20138;-86
2023/05/06 02:03:21;;;;;;;0.82;0.30;;;10.00;99.90;;;;;;5035869;28;20041;-86
2023/05/06 02:05:47;;;;;;;0.28;0.25;;;10.00;99.90;;;;;;5035966;28;20533;-86
2023/05/06 02:08:13;;;;;;;0.52;0.52;;;9.90;99.90;;;;;;5054631;28;20051;-86
2023/05/06 02:10:38;;;;;;;0.15;0.15;;;10.30;99.90;;;;;;5056059;28;20050;-86
2023/05/06 02:13:04;;;;;;;2.45;0.40;;;9.80;99.90;;;;;;5055558;28;20442;-86
2023/05/06 02:15:30;;;;;;;0.10;0.10;;;9.70;99.90;;;;;;5055667;28;20056;-86
2023/05/06 02:17:56;;;;;;;0.00;0.00;;;9.60;99.90;;;;;;5038078;28;20046;-86
2023/05/06 02:20:22;;;;;;;0.43;0.35;;;9.50;99.90;;;;;;5034089;28;20106;-86
2023/05/06 02:22:47;;;;;;;0.10;0.10;;;9.40;99.90;;;;;;5035544;28;20042;-86
2023/05/06 02:25:13;;;;;;;0.32;0.32;;;9.40;99.90;;;;;;5035337;28;20052;-86
2023/05/06 02:27:39;;;;;;;0.30;0.30;;;9.40;99.90;;;;;;5049283;28;20525;-86
2023/05/06 02:30:05;;;;;;;0.88;0.85;;;9.20;99.90;;;;;;5055283;28;20053;-86
2023/05/06 02:32:31;;;;;;;0.25;0.25;;;9.10;99.90;;;;;;5054083;28;20573;-86
2023/05/06 02:34:56;;;;;;;0.38;0.38;;;9.20;99.90;;;;;;5035583;28;20041;-86
2023/05/06 02:37:22;;;;;;;0.00;0.00;;;9.10;99.90;;;;;;5041250;28;20046;-86
2023/05/06 02:39:48;;;;;;;0.10;0.10;;;9.00;99.90;;;;;;5049530;28;20526;-86
2023/05/06 02:42:17;;;;;;;0.20;0.20;;;9.00;99.90;;;;;;5055228;28;20047;-86
2023/05/06 02:44:43;;;;;;;0.10;0.05;;;9.00;99.90;;;;;;5045493;28;20037;-86
2023/05/06 02:47:08;;;;;;;0.10;0.10;;;9.10;99.90;;;;;;5035409;28;20109;-86
2023/05/06 02:49:34;;;;;;;0.00;0.00;;;8.90;99.90;;;;;;5035155;28;20346;-86
2023/05/06 02:52:00;;;;;;;0.73;0.73;;;8.90;99.90;;;;;;5033897;28;20053;-86
2023/05/06 02:54:26;;;;;;;0.95;0.45;;;8.90;99.90;;;;;;5037003;28;20113;-85
2023/05/06 02:56:52;;;;;;;1.25;0.65;;;8.90;99.90;;;;;;5044664;28;20053;-85
2023/05/06 02:59:18;;;;;;;0.17;0.17;;;8.80;99.90;;;;;;5032941;28;20056;-85
2023/05/06 03:01:43;;;;;;;0.00;0.00;;;8.60;99.90;;;;;;5039038;28;20487;-85
2023/05/06 03:04:09;;;;;;;0.22;0.22;;;8.40;99.90;;;;;;5054687;28;20073;-85
2023/05/06 03:06:34;;;;;;;0.00;0.00;;;8.30;99.90;;;;;;5051139;28;20033;-85
2023/05/06 03:09:00;;;;;;;0.10;0.10;;;8.10;99.90;;;;;;5054471;28;20041;-85
2023/05/06 03:11:25;;;;;;;0.20;0.13;;;8.00;99.90;;;;;;5053807;28;20048;-85
2023/05/06 03:13:51;;;;;;;0.45;0.35;;;8.00;99.90;;;;;;5034569;28;20046;-85
2023/05/06 03:16:17;;;;;;;0.10;0.10;;;8.80;99.90;;;;;;5034591;28;20063;-85
2023/05/06 03:18:42;;;;;;;0.45;0.40;;;8.00;99.90;;;;;;5034627;28;20041;-85
2023/05/06 03:21:08;;;;;;;0.08;0.08;;;7.90;99.90;;;;;;5035068;28;20049;-86
2023/05/06 03:23:33;;;;;;;0.57;0.52;;;7.90;99.90;;;;;;5034291;28;20042;-86
2023/05/06 03:25:59;;;;;;;0.00;0.00;;;7.80;99.90;;;;;;5034365;28;20504;-86
2023/05/06 03:28:25;;;;;;;0.17;0.17;;;7.70;99.90;;;;;;5034528;28;20040;-85
2023/05/06 03:30:50;;;;;;;0.13;0.08;;;7.70;99.90;;;;;;5034479;28;20041;-86
2023/05/06 03:33:16;;;;;;;0.00;0.00;;;8.60;99.90;;;;;;5034342;28;20037;-86
2023/05/06 03:35:41;;;;;;;0.00;0.00;;;7.60;99.90;;;;;;5034120;28;20037;-86
2023/05/06 03:38:07;;;;;;;0.10;0.10;;;7.50;99.90;;;;;;5037468;28;20048;-86
2023/05/06 03:40:33;;;;;;;0.88;0.75;;;7.60;99.90;;;;;;5054217;28;20056;-86
2023/05/06 03:42:58;;;;;;;0.75;0.63;;;7.70;99.90;;;;;;5054080;28;20403;-86
2023/05/06 03:45:24;;;;;;;0.05;0.05;;;7.70;99.90;;;;;;5053702;28;20090;-86
2023/05/06 03:47:50;;;;;;;1.20;0.40;;;7.70;99.90;;;;;;5043566;28;20120;-86
2023/05/06 03:50:15;;;;;;;0.03;0.03;;;7.60;99.90;;;;;;5047799;28;20587;-86
2023/05/06 03:52:41;;;;;;;0.00;0.00;;;7.50;99.90;;;;;;5053906;28;20093;-86
2023/05/06 03:55:07;;;;;;;0.00;0.00;;;7.50;99.90;;;;;;5052945;28;20165;-86
2023/05/06 03:57:33;;;;;;;0.00;0.00;;;7.60;99.90;;;;;;5038599;28;20042;-86
2023/05/06 03:59:58;;;;;;;0.00;0.00;;;7.60;99.90;;;;;;5033906;28;20512;-86
2023/05/06 04:02:24;;;;;;;0.10;0.10;;;7.70;99.90;;;;;;5033808;28;20045;-86
2023/05/06 04:04:50;;;;;;;0.20;0.10;;;7.70;99.90;;;;;;5033767;28;20038;-86
2023/05/06 04:07:15;;;;;;;0.35;0.10;;;7.70;99.90;;;;;;5044756;28;20047;-86
2023/05/06 04:09:41;;;;;;;0.00;0.00;;;7.70;99.90;;;;;;5053561;28;20048;-86
2023/05/06 04:12:07;;;;;;;0.30;0.22;;;7.80;99.90;;;;;;5053176;28;20431;-86
2023/05/06 04:14:32;;;;;;;0.35;0.35;;;7.70;99.90;;;;;;5053424;28;20098;-86
2023/05/06 04:16:58;;;;;;;0.00;0.00;;;7.90;99.90;;;;;;5052006;28;20044;-86
2023/05/06 04:19:23;;;;;;;0.30;0.03;;;7.70;99.90;;;;;;5053111;28;20051;-86
2023/05/06 04:21:49;;;;;;;0.00;0.00;;;7.70;99.90;;;;;;5052115;28;20053;-86
2023/05/06 04:24:15;;;;;;;0.00;0.00;;;7.70;99.90;;;;;;5051806;28;20049;-86
2023/05/06 04:26:41;;;;;;;0.20;0.20;;;7.70;99.90;;;;;;5052281;28;20045;-86
2023/05/06 04:29:07;;;;;;;0.00;0.00;;;7.80;99.90;;;;;;5051202;28;20037;-86
2023/05/06 04:31:33;;;;;;;0.63;0.52;;;7.70;99.90;;;;;;5052966;28;20045;-86
2023/05/06 04:34:00;;;;;;;0.00;0.00;;;7.70;99.90;;;;;;5058641;28;20199;-86
2023/05/06 04:36:26;;;;;;;0.00;0.00;;;7.80;99.90;;;;;;5071398;28;20048;-86
2023/05/06 04:38:52;;;;;;;0.00;0.00;;;7.80;99.90;;;;;;5048761;28;20041;-86
2023/05/06 04:41:19;;;;;;;0.00;0.00;;;8.00;99.90;;;;;;5031565;28;20080;-86
2023/05/06 04:43:45;;;;;;;0.00;0.00;;;8.10;99.90;;;;;;5033052;28;20076;-86
2023/05/06 04:46:10;;;;;;;0.00;0.00;;;8.30;99.90;;;;;;5032716;28;20045;-86
2023/05/06 04:48:36;;;;;;;0.00;0.00;;;8.40;99.90;;;;;;5032395;28;20045;-86
2023/05/06 04:51:05;;;;;;;0.00;0.00;;;8.60;99.90;;;;;;5031205;28;20045;-86
2023/05/06 04:53:31;;;;;;;0.00;0.00;;;8.80;99.90;;;;;;5032451;28;20046;-86
2023/05/06 04:55:56;;;;;;;0.85;0.68;;;8.80;99.90;;;;;;5043076;28;20331;-86
2023/05/06 04:58:22;;;;;;;0.17;0.17;;;8.90;99.90;;;;;;5052303;28;20045;-86
2023/05/06 05:00:48;;;;;;;1.23;0.68;;;9.10;99.90;;;;;;5052639;28;20047;-86
2023/05/06 05:03:13;;;;;;;0.15;0.08;;;9.00;99.90;;;;;;5052565;28;20048;-86
2023/05/06 05:05:39;;;;;;;0.10;0.10;;;9.10;99.90;;;;;;5052066;28;20478;-86
2023/05/06 05:08:05;;;;;;;0.00;0.00;;;9.10;99.90;;;;;;5051873;28;20106;-86
2023/05/06 05:10:30;;;;;;;0.00;0.00;;;9.10;99.90;;;;;;5052042;28;20384;-86
2023/05/06 05:12:57;;;;;;;0.05;0.05;;;9.30;99.90;;;;;;5052495;28;20123;-86
2023/05/06 05:15:22;;;;;;;0.00;0.00;;;9.40;99.90;;;;;;5051998;28;20041;-86
2023/05/06 05:17:49;;;;;;;0.00;0.00;;;9.70;99.90;;;;;;5052353;28;20044;-86
2023/05/06 05:20:15;;;;;;;0.43;0.40;;;10.80;99.90;;;;;;5052824;28;20387;-86
2023/05/06 05:22:41;;;;;;;0.47;0.43;;;10.00;99.90;;;;;;5051948;28;20048;-86
2023/05/06 05:25:06;;;;;;;0.00;0.00;;;10.10;99.90;;;;;;5052697;28;20052;-86
2023/05/06 05:27:32;;;;;;;0.10;0.10;;;10.20;99.90;;;;;;5052651;28;20048;-86
2023/05/06 05:29:58;;;;;;;1.75;0.95;;;11.50;99.90;;;;;;5050088;28;20056;-86
2023/05/06 05:32:24;;;;;;;0.22;0.22;;;10.40;99.90;;;;;;5052627;28;20037;-86
2023/05/06 05:34:50;;;;;;;0.00;0.00;;;10.50;99.90;;;;;;5051885;28;20517;-86
2023/05/06 05:37:15;;;;;;;0.17;0.17;;;10.60;99.90;;;;;;5043486;28;20042;-86
2023/05/06 05:39:41;;;;;;;0.00;0.00;;;10.60;99.90;;;;;;5042642;28;20080;-86
2023/05/06 05:42:06;;;;;;;0.15;0.08;;;11.30;99.90;;;;;;5052143;28;20068;-86
2023/05/06 05:44:32;;;;;;;1.00;0.30;;;10.70;99.90;;;;;;5052269;28;20041;-86
2023/05/06 05:46:57;;;;;;;0.10;0.10;;;10.80;99.90;;;;;;5048169;28;20045;-86
2023/05/06 05:49:23;;;;;;;0.00;0.00;;;10.90;99.90;;;;;;5033184;28;20056;-86
2023/05/06 05:51:49;;;;;;;0.25;0.22;;;10.90;99.90;;;;;;5032548;28;20048;-86
2023/05/06 05:54:15;;;;;;;1.90;0.90;;;11.00;99.90;;;;;;5031643;28;20480;-86
2023/05/06 05:56:41;;;;;;;0.43;0.43;;;11.60;99.90;;;;;;5045602;28;20053;-86
2023/05/06 05:59:07;;;;;;;0.05;0.05;;;11.00;99.90;;;;;;5052173;28;20090;-86
2023/05/06 06:01:32;;;;;;;0.50;0.50;;;11.10;99.90;;;;;;5051970;28;20093;-86
2023/05/06 06:03:58;;;;;;;0.55;0.45;;;11.10;99.90;;;;;;5052080;28;20651;-87
2023/05/06 06:06:24;;;;;;;2.40;0.75;;;11.20;99.90;;;;;;5051460;28;20053;-86
2023/05/06 06:08:50;;;;;;;0.13;0.13;;;11.30;99.90;;;;;;5031595;28;20048;-86
2023/05/06 06:11:15;;;;;;;0.25;0.25;;;11.40;99.90;;;;;;5031785;28;20493;-86
2023/05/06 06:13:41;;;;;;;0.00;0.00;;;11.50;99.90;;;;;;5031650;28;20670;-85
2023/05/06 06:16:07;;;;;;;1.45;1.08;;;11.50;99.90;;;;;;5030715;28;20057;-86
2023/05/06 06:18:32;;;;;;;0.57;0.57;;;11.60;99.90;;;;;;5035163;28;20053;-86
2023/05/06 06:20:58;;;;;;;0.65;0.52;;;11.60;99.90;;;;;;5034398;28;20388;-86
2023/05/06 06:23:24;;;;;;;0.40;0.32;;;11.60;99.90;;;;;;5035825;28;20048;-86
2023/05/06 06:25:49;;;;;;;0.63;0.63;;;12.00;99.90;;;;;;5052698;28;20049;-86
2023/05/06 06:28:15;;;;;;;0.45;0.38;;;12.10;99.90;;;;;;5040873;28;20046;-86
2023/05/06 06:30:41;;;;;;;0.55;0.43;;;11.60;99.90;;;;;;5035268;28;20073;-86
2023/05/06 06:33:06;;;;;;;0.15;0.08;;;11.70;99.90;;;;;;5035212;28;20100;-86
2023/05/06 06:35:32;;;;;;;0.73;0.68;;;11.90;99.90;;;;;;5038720;28;20504;-86
2023/05/06 06:37:58;;;;;;;0.82;0.60;;;11.90;99.90;;;;;;5035059;28;20057;-86
2023/05/06 06:40:24;;;;;;;0.75;0.55;;;11.90;99.90;;;;;;5047341;28;20041;-86
2023/05/06 06:42:50;;;;;;;1.38;1.27;;;11.90;99.90;;;;;;5034385;28;20920;-85
2023/05/06 06:45:16;;;;;;;0.50;0.45;;;11.90;99.90;;;;;;5045473;28;20080;-86
2023/05/06 06:47:41;;;;;;;0.73;0.45;;;11.80;99.90;;;;;;5043646;28;20077;-86
2023/05/06 06:50:08;;;;;;;2.03;1.27;;;12.90;99.90;;;;;;5034665;28;20064;-86
2023/05/06 06:52:34;;;;;;;3.92;1.80;;;12.00;99.90;;;;;;5017153;28;20604;-86
2023/05/06 06:55:01;;;;;;;1.08;0.95;;;12.10;99.90;;;;;;5033486;28;20672;-86
2023/05/06 06:57:26;;;;;;;1.05;0.93;;;12.10;99.90;;;;;;5042229;28;20526;-86
2023/05/06 06:59:53;;;;;;;1.88;1.00;;;12.10;99.90;;;;;;5051117;28;20053;-86
2023/05/06 07:02:20;;;;;;;0.88;0.45;;;12.40;99.90;;;;;;5061759;28;20094;-86
2023/05/06 07:04:45;;;;;;;0.57;0.55;;;12.30;99.90;;;;;;5054508;28;20114;-86
2023/05/06 07:07:11;;;;;;;1.65;0.93;;;13.00;99.90;;;;;;5048168;28;20041;-86
2023/05/06 07:09:38;;;;;;;0.85;0.52;;;12.50;99.90;;;;;;5040399;28;20045;-86
2023/05/06 07:12:05;;;;;;;0.30;0.30;;;12.50;99.90;;;;;;5069866;28;20036;-86
2023/05/06 07:14:31;;;;;;;2.50;0.73;;;12.70;99.90;;;;;;5066284;28;20037;-86
2023/05/06 07:16:56;;;;;;;1.55;1.17;;;12.70;99.90;;;;;;5054413;28;20097;-86
2023/05/06 07:19:22;;;;;;;0.68;0.68;;;12.80;99.90;;;;;;5073502;28;20029;-85
2023/05/06 07:21:47;;;;;;;1.17;0.70;;;13.00;99.90;;;;;;5060149;28;20565;-86
2023/05/06 07:24:13;;;;;;;1.25;0.93;;;13.00;99.90;;;;;;5052250;28;20076;-86
2023/05/06 07:26:39;;;;;;;0.98;0.68;;;13.20;99.90;;;;;;5066094;28;20036;-86
2023/05/06 07:29:05;;;;;;;0.63;0.63;;;13.30;99.90;;;;;;5050045;28;20037;-86
2023/05/06 07:31:32;;;;;;;1.33;0.88;;;13.10;99.90;;;;;;5048847;28;20052;-86
2023/05/06 07:33:58;;;;;;;0.25;0.25;;;13.50;99.90;;;;;;5038805;28;20033;-86
2023/05/06 07:36:24;;;;;;;4.65;2.15;;;13.20;99.90;;;;;;5032270;28;20046;-86
2023/05/06 07:38:49;;;;;;;0.43;0.38;;;13.30;99.90;;;;;;5048829;28;20049;-86
2023/05/06 07:41:15;;;;;;;2.05;1.42;;;13.30;99.90;;;;;;5051659;28;20486;-86
2023/05/06 07:43:41;;;;;;;1.23;0.63;;;14.40;99.90;;;;;;5050787;28;20040;-86
2023/05/06 07:46:06;;;;;;;0.38;0.35;;;13.50;99.90;;;;;;5049581;28;20351;-85
2023/05/06 07:48:32;;;;;;;0.93;0.80;;;14.00;99.90;;;;;;5051893;28;20041;-86
2023/05/06 07:50:58;;;;;;;1.75;1.58;;;13.70;99.90;;;;;;5045569;28;20094;-86
2023/05/06 07:53:25;;;;;;;3.22;1.17;;;14.10;99.90;;;;;;5042361;28;20041;-86
2023/05/06 07:56:00;;;;;;;1.38;1.13;;;13.70;99.90;;;;;;5030831;28;20133;-86
2023/05/06 07:58:30;;;;;;;2.67;2.17;;;13.90;99.90;;;;;;5022356;28;20045;-85
2023/05/06 08:00:56;;;;;;;1.30;1.20;;;15.10;99.90;;;;;;5031187;28;20045;-85
2023/05/06 08:03:21;;;;;;;1.13;1.02;;;15.70;99.90;;;;;;5040467;28;20052;-85
2023/05/06 08:05:50;;;;;;;1.63;1.30;;;16.80;99.90;;;;;;5041241;28;20128;-85
2023/05/06 08:08:15;;;;;;;1.23;1.17;;;16.60;99.90;;;;;;5030181;28;20092;-86
2023/05/06 08:10:42;;;;;;;1.08;0.98;;;17.40;99.90;;;;;;5021146;28;20084;-85
2023/05/06 08:13:08;;;;;;;1.60;1.17;;;19.50;1.00;;;;;;5020406;28;20049;-85
2023/05/06 08:15:34;;;;;;;1.90;1.48;;;18.40;99.90;;;;;;5033414;28;20052;-85
2023/05/06 08:18:00;;;;;;;3.80;1.10;;;18.60;1.00;;;;;;5018960;28;20049;-85
2023/05/06 08:20:25;;;;;;;0.45;0.43;;;19.20;1.00;;;;;;5018681;28;20404;-86
2023/05/06 08:22:51;;;;;;;2.03;0.55;;;20.40;1.00;;;;;;5019571;28;20041;-85
2023/05/06 08:25:16;;;;;;;1.45;0.82;;;18.70;55.90;;;;;;5020440;28;20049;-85
2023/05/06 08:27:42;;;;;;;2.30;1.23;;;19.70;99.90;;;;;;5019179;28;20051;-85
2023/05/06 08:30:08;;;;;;;2.53;1.30;;;19.90;99.90;;;;;;5019536;28;20091;-85
2023/05/06 08:32:34;;;;;;;2.58;1.40;;;20.00;1.70;;;;;;5018883;28;20148;-85
2023/05/06 08:35:06;;;;;;;0.20;0.20;;;20.60;1.00;;;;;;5019973;28;20296;-86
2023/05/06 08:37:35;;;;;;;1.55;0.98;;;20.20;89.80;;;;;;5047936;28;20644;-85
2023/05/06 08:40:00;;;;;;;1.25;0.77;;;19.70;99.90;;;;;;5048624;28;20123;-86
2023/05/06 08:42:29;;;;;;;1.33;0.90;;;20.50;1.00;;;;;;5039472;28;20183;-84
2023/05/06 08:44:55;;;;;;;0.70;0.57;;;21.10;99.90;;;;;;5039684;28;20139;-83
2023/05/06 08:47:21;;;;;;;0.60;0.40;;;22.00;1.00;;;;;;5023755;28;20056;-83
2023/05/06 08:49:50;;;;;;;1.20;1.10;;;22.20;99.90;;;;;;5040951;28;20102;-84
2023/05/06 08:52:17;;;;;;;1.33;1.02;;;23.10;31.40;;;;;;5041331;28;20037;-84
2023/05/06 08:54:44;;;;;;;1.42;1.15;;;24.80;1.00;;;;;;5043849;28;20049;-83
2023/05/06 08:57:11;;;;;;;1.50;1.33;;;24.30;1.00;;;;;;5043614;28;20478;-83
2023/05/06 08:59:37;;;;;;;0.70;0.55;;;24.20;99.90;;;;;;5024162;28;20053;-83
2023/05/06 09:02:04;;;;;;;1.38;0.55;;;23.20;99.90;;;;;;5024508;28;20266;-83
2023/05/06 09:04:30;;;;;;;2.42;1.00;;;21.70;1.00;;;;;;5024681;28;20042;-83
2023/05/06 09:06:57;;;;;;;4.47;1.17;;;21.80;1.00;;;;;;5024536;28;20472;-84
2023/05/06 09:09:23;;;;;;;1.15;1.00;;;21.10;99.90;;;;;;5024462;28;20085;-84
2023/05/06 09:11:52;;;;;;;1.17;1.00;;;21.90;1.00;;;;;;5024538;28;20131;-83
2023/05/06 09:14:20;;;;;;;1.05;0.98;;;21.80;99.90;;;;;;5024299;28;20045;-83
2023/05/06 09:16:48;;;;;;;0.52;0.52;;;22.40;99.90;;;;;;5022957;28;20506;-84
2023/05/06 09:19:15;;;;;;;1.02;0.60;;;23.10;99.90;;;;;;5025115;28;20049;-84
2023/05/06 09:21:46;;;;;;;0.75;0.55;;;24.20;99.90;;;;;;5023660;28;20136;-83
2023/05/06 09:24:14;;;;;;;0.90;0.60;;;22.60;56.90;;;;;;5026227;28;20041;-83
2023/05/06 09:26:41;;;;;;;4.28;1.17;;;22.00;99.90;;;;;;5027261;28;20424;-83
2023/05/06 09:29:07;;;;;;;1.35;0.65;;;22.10;99.90;;;;;;5043527;28;20564;-83
2023/05/06 09:31:45;;;;;;;0.60;0.47;;;23.00;99.90;;;;;;5045784;28;20044;-83
2023/05/06 09:34:12;;;;;;;0.50;0.50;;;23.50;99.90;;;;;;5046730;28;20063;-83
2023/05/06 09:36:38;;;;;;;1.55;1.00;;;23.00;91.80;;;;;;5038952;28;20498;-83
2023/05/06 09:39:04;;;;;;;0.30;0.30;;;22.30;86.60;;;;;;5027206;28;20539;-83
2023/05/06 09:41:30;;;;;;;0.20;0.20;;;22.40;95.40;;;;;;5027446;28;20381;-82
2023/05/06 09:43:58;;;;;;;0.43;0.30;;;22.20;99.90;;;;;;5025304;28;20057;-83
2023/05/06 09:46:24;;;;;;;0.30;0.25;;;22.90;99.90;;;;;;5021666;28;20061;-84
2023/05/06 09:48:52;;;;;;;0.40;0.40;;;22.80;96.50;;;;;;5036118;28;20037;-83
2023/05/06 09:51:18;;;;;;;0.93;0.40;;;23.00;2.80;;;;;;5041065;28;20115;-83
2023/05/06 09:53:44;;;;;;;0.17;0.17;;;23.10;1.00;;;;;;5042753;28;20037;-83
2023/05/06 09:56:11;;;;;;;0.75;0.52;;;23.10;60.40;;;;;;5034016;28;20060;-83
2023/05/06 09:58:37;;;;;;;0.20;0.20;;;23.10;1.00;;;;;;5026428;28;20071;-83
2023/05/06 10:01:04;;;;;;;0.80;0.52;;;23.30;99.90;;;;;;5024848;28;20054;-83
2023/05/06 10:03:30;;;;;;;0.47;0.43;;;23.10;6.90;;;;;;5025851;28;20050;-83
2023/05/06 10:05:58;;;;;;;0.50;0.47;;;22.40;1.00;;;;;;5032820;28;20056;-83
2023/05/06 10:08:24;;;;;;;0.40;0.40;;;22.00;1.00;;;;;;5024124;28;20507;-83
2023/05/06 10:10:50;;;;;;;1.45;0.77;;;21.40;62.80;;;;;;5024235;28;20391;-83
2023/05/06 10:13:16;;;;;;;1.95;1.30;;;21.20;50.50;;;;;;5023941;28;20045;-83
2023/05/06 10:15:46;;;;;;;5.53;1.83;;;21.20;99.90;;;;;;5026670;28;20119;-83
2023/05/06 10:18:15;;;;;;;0.88;0.63;;;21.20;99.90;;;;;;5045070;28;20045;-83
2023/05/06 10:20:42;;;;;;;0.43;0.43;;;21.20;99.90;;;;;;5045560;28;20501;-83
2023/05/06 10:23:29;;;;;;;2.65;0.90;;;21.30;99.90;;;;;;5046035;28;20132;-83
2023/05/06 10:25:58;;;;;;;1.60;1.05;;;21.40;99.90;;;;;;5036921;28;20102;-83
2023/05/06 10:28:24;;;;;;;2.10;1.30;;;21.50;84.60;;;;;;5046104;28;20044;-83
2023/05/06 10:30:51;;;;;;;1.23;0.77;;;20.80;17.10;;;;;;5046751;28;20404;-83
2023/05/06 10:33:17;;;;;;;2.03;0.82;;;21.30;35.10;;;;;;5046147;28;20037;-83
2023/05/06 10:36:07;;;;;;;0.32;0.30;;;21.90;43.70;;;;;;5045555;28;20167;-83
2023/05/06 10:38:36;;;;;;;1.52;0.85;;;21.80;30.20;;;;;;5044794;28;20117;-83
2023/05/06 10:41:03;;;;;;;1.45;1.08;;;21.70;78.50;;;;;;5044777;28;20430;-83
2023/05/06 10:43:33;;;;;;;1.38;1.02;;;21.20;1.00;;;;;;5044925;28;20520;-83
2023/05/06 10:46:04;;;;;;;1.02;0.70;;;20.50;41.90;;;;;;5034932;28;20124;-83
2023/05/06 10:48:31;;;;;;;1.55;1.05;;;20.00;37.10;;;;;;5024798;28;20057;-83
2023/05/06 10:51:15;;;;;;;0.85;0.63;;;19.80;99.90;;;;;;5025279;28;20480;-82
2023/05/06 10:54:01;;;;;;;0.93;0.80;;;19.80;99.90;;;;;;5024111;28;20492;-82
2023/05/06 10:56:34;;;;;;;0.52;0.52;;;19.70;99.90;;;;;;5041560;28;20053;-83
2023/05/06 10:59:11;;;;;;;5.60;0.98;;;19.30;99.90;;;;;;5045053;28;20491;-83
2023/05/06 11:01:39;;;;;;;1.35;0.98;;;19.20;99.90;;;;;;5044701;28;20092;-83
2023/05/06 11:04:17;;;;;;;1.75;1.20;;;18.80;99.90;;;;;;5045412;28;20041;-83
2023/05/06 11:06:49;;;;;;;0.50;0.50;;;18.50;99.90;;;;;;5042881;28;20049;-83
2023/05/06 11:09:19;;;;;;;1.23;1.00;;;18.80;99.90;;;;;;5044987;28;20123;-83
2023/05/06 11:11:57;;;;;;;2.47;1.63;;;19.20;99.90;;;;;;5045362;28;20049;-83
2023/05/06 11:14:34;;;;;;;2.10;1.20;;;19.50;99.90;;;;;;5044057;28;20049;-82
2023/05/06 11:17:03;;;;;;;1.17;1.08;;;20.50;99.90;;;;;;5026595;28;20088;-83
2023/05/06 11:19:31;;;;;;;0.57;0.57;;;21.00;99.90;;;;;;5024263;28;20057;-83
2023/05/06 11:21:59;;;;;;;1.23;1.13;;;21.30;92.70;;;;;;5024399;28;20045;-83
2023/05/06 11:24:30;;;;;;;1.50;1.13;;;21.50;1.00;;;;;;5025085;28;20059;-83
2023/05/06 11:26:57;;;;;;;2.33;1.67;;;21.00;11.30;;;;;;5025040;28;20401;-83
2023/05/06 11:29:24;;;;;;;1.35;0.88;;;20.90;1.00;;;;;;5024806;28;20511;-83
2023/05/06 11:31:51;;;;;;;3.45;2.05;;;20.80;1.00;;;;;;5024703;28;20072;-83
2023/05/06 11:34:28;;;;;;;0.70;0.70;;;21.10;1.00;;;;;;5024948;28;20079;-83
2023/05/06 11:37:02;;;;;;;2.42;1.77;;;20.40;1.00;;;;;;5025222;28;20033;-83
2023/05/06 11:39:30;;;;;;;2.58;1.00;;;20.60;1.00;;;;;;5023742;28;20049;-82
2023/05/06 11:42:05;;;;;;;0.63;0.60;;;20.70;1.00;;;;;;5025022;28;20041;-82
2023/05/06 11:44:38;;;;;;;0.85;0.82;;;21.00;1.00;;;;;;5024662;28;20056;-82
2023/05/06 11:47:08;;;;;;;3.58;1.58;;;21.20;1.00;;;;;;5025103;28;20045;-82
2023/05/06 11:49:39;;;;;;;2.40;1.73;;;21.60;1.00;;;;;;5024677;28;20458;-82
2023/05/06 11:52:06;;;;;;;1.00;0.93;;;21.70;1.00;;;;;;5025840;28;20042;-82
2023/05/06 11:54:38;;;;;;;2.58;1.73;;;22.20;1.00;;;;;;5042854;28;20060;-82
2023/05/06 11:57:04;;;;;;;2.03;1.60;;;22.10;1.00;;;;;;5043392;28;20048;-82
2023/05/06 11:59:37;;;;;;;1.77;1.20;;;21.80;1.00;;;;;;5044887;28;20051;-82
2023/05/06 12:02:08;;;;;;;4.38;1.95;;;21.40;1.00;;;;;;5045437;28;20049;-82
2023/05/06 12:05:01;;;;;;;2.90;1.17;;;21.30;99.90;;;;;;5043830;28;20076;-82
2023/05/06 12:07:27;;;;;;;4.70;1.20;;;21.10;1.00;;;;;;5023272;28;20053;-82
2023/05/06 12:09:52;;;;;;;4.22;1.02;;;20.80;1.00;;;;;;5023139;28;20045;-83
2023/05/06 12:12:21;;;;;;;1.25;0.80;;;21.60;1.00;;;;;;5024856;28;20120;-82
2023/05/06 12:14:48;;;;;;;2.03;1.50;;;21.40;1.00;;;;;;5024175;28;20507;-83
2023/05/06 12:17:15;;;;;;;5.60;2.20;;;21.40;1.00;;;;;;5024343;28;20053;-82
2023/05/06 12:19:41;;;;;;;0.95;0.75;;;21.20;1.00;;;;;;5024403;28;20097;-83
2023/05/06 12:22:16;;;;;;;1.60;0.75;;;21.20;1.00;;;;;;5024175;28;20132;-82
2023/05/06 12:24:43;;;;;;;3.28;1.92;;;20.50;99.90;;;;;;5037747;28;20036;-83
2023/05/06 12:27:08;;;;;;;1.02;0.90;;;20.00;99.90;;;;;;5030773;28;20511;-82
2023/05/06 12:29:34;;;;;;;5.25;1.38;;;20.10;1.00;;;;;;5030016;28;20124;-82
2023/05/06 12:32:10;;;;;;;1.40;1.05;;;20.00;1.00;;;;;;5025955;28;20045;-82
2023/05/06 12:34:39;;;;;;;1.70;1.40;;;19.80;99.90;;;;;;5026717;28;20116;-82
2023/05/06 12:37:08;;;;;;;1.15;0.80;;;19.50;99.90;;;;;;5025626;28;20495;-82
2023/05/06 12:39:35;;;;;;;3.15;2.17;;;19.60;99.90;;;;;;5027857;28;20041;-83
2023/05/06 12:42:01;;;;;;;2.42;0.75;;;19.60;99.90;;;;;;5025083;28;20041;-82
2023/05/06 12:44:36;;;;;;;0.85;0.77;;;19.50;99.90;;;;;;5025195;28;20159;-82
2023/05/06 12:47:23;;;;;;;1.00;0.93;;;19.70;99.90;;;;;;5025505;28;20037;-82
2023/05/06 12:49:59;;;;;;;2.83;1.42;;;19.30;99.90;;;;;;5025541;28;20186;-82
2023/05/06 12:52:29;;;;;;;1.02;0.63;;;19.40;1.00;;;;;;5024258;28;20053;-82